Time;durP1;ratioP1;P1;durP2;ratioP2;P2;SDS_P1;SDS_P2;PMS_P1;PMS_P2;Temp;Humidity;BMP_temperature;BMP_pressure;BME280_temperature;BME280_humidity;BME280_pressure;Samples;Min_cycle;Max_cycle;Signal;HPM_P1;HPM_P2
2021/03/13 00:01:46;;;;;;;8.15;1.50;;;;;13.20;99741.00;;;;5089359;28;20252;-78
2021/03/13 00:04:12;;;;;;;4.13;1.30;;;;;13.30;99738.00;;;;5091867;28;20198;-78
2021/03/13 00:06:39;;;;;;;7.40;1.30;;;;;13.20;99731.00;;;;5090295;28;21187;-78
2021/03/13 00:09:06;;;;;;;2.08;0.70;;;;;13.30;99730.00;;;;5085417;28;20202;-78
2021/03/13 00:11:33;;;;;;;6.10;1.40;;;;;13.30;99722.00;;;;5070785;28;20319;-78
2021/03/13 00:14:01;;;;;;;4.93;1.33;;;;;13.30;99726.00;;;;5089832;28;20202;-78
2021/03/13 00:16:27;;;;;;;3.78;1.10;;;;;13.30;99717.00;;;;5088235;28;20202;-78
2021/03/13 00:18:54;;;;;;;2.80;1.10;;;;;13.30;99705.00;;;;5089518;28;20518;-78
2021/03/13 00:21:21;;;;;;;4.47;0.98;;;;;13.30;99709.00;;;;5090213;28;20217;-78
2021/03/13 00:23:48;;;;;;;7.03;1.95;;;;;13.30;99698.00;;;;5082633;28;20211;-78
2021/03/13 00:26:14;;;;;;;5.95;1.20;;;;;13.30;99692.00;;;;5071506;28;20205;-78
2021/03/13 00:28:41;;;;;;;6.40;1.73;;;;;13.30;99686.00;;;;5087920;28;20699;-78
2021/03/13 00:31:09;;;;;;;3.72;0.85;;;;;13.20;99689.00;;;;5089816;28;20272;-78
2021/03/13 00:33:37;;;;;;;6.20;1.42;;;;;13.30;99680.00;;;;5087463;28;20195;-78
2021/03/13 00:36:05;;;;;;;4.35;1.10;;;;;13.30;99667.00;;;;5082568;28;20897;-78
2021/03/13 00:38:31;;;;;;;4.50;1.38;;;;;13.30;99658.00;;;;5090132;28;20202;-78
2021/03/13 00:40:58;;;;;;;3.88;0.88;;;;;13.30;99657.00;;;;5090897;28;20191;-78
2021/03/13 00:43:25;;;;;;;5.93;1.35;;;;;13.30;99647.00;;;;5089729;28;20206;-77
2021/03/13 00:45:52;;;;;;;3.38;1.15;;;;;13.30;99647.00;;;;5090114;28;20210;-78
2021/03/13 00:48:19;;;;;;;6.30;1.40;;;;;13.20;99635.00;;;;5088357;28;20226;-76
2021/03/13 00:50:46;;;;;;;5.85;1.60;;;;;13.20;99647.00;;;;5089168;28;20292;-78
2021/03/13 00:53:14;;;;;;;8.85;1.60;;;;;13.20;99636.00;;;;5076120;28;20873;-78
2021/03/13 00:55:41;;;;;;;7.32;1.20;;;;;13.20;99630.00;;;;5088842;28;20191;-79
2021/03/13 00:58:08;;;;;;;5.70;1.23;;;;;13.20;99633.00;;;;5089193;28;20195;-78
2021/03/13 01:00:35;;;;;;;6.97;1.38;;;;;13.20;99621.00;;;;5085546;28;20202;-78
2021/03/13 01:03:02;;;;;;;3.30;1.05;;;;;13.20;99626.00;;;;5081369;28;20542;-78
2021/03/13 01:05:30;;;;;;;4.78;1.45;;;;;13.20;99624.00;;;;5086473;28;20198;-77
2021/03/13 01:07:56;;;;;;;7.75;2.15;;;;;13.20;99620.00;;;;5089024;28;20579;-77
2021/03/13 01:10:28;;;;;;;3.78;1.05;;;;;13.10;99607.00;;;;5076836;28;20289;-77
2021/03/13 01:12:55;;;;;;;2.72;1.00;;;;;13.10;99599.00;;;;5070884;28;20226;-78
2021/03/13 01:15:24;;;;;;;7.70;1.65;;;;;13.10;99596.00;;;;5087765;28;20186;-78
2021/03/13 01:17:51;;;;;;;5.43;1.80;;;;;13.10;99589.00;;;;5087778;28;20575;-78
2021/03/13 01:20:19;;;;;;;4.65;1.35;;;;;13.10;99576.00;;;;5080199;28;20206;-78
2021/03/13 01:22:47;;;;;;;5.32;1.20;;;;;13.10;99574.00;;;;5086648;28;20195;-78
2021/03/13 01:25:15;;;;;;;2.75;1.10;;;;;13.00;99566.00;;;;5088397;28;20199;-79
2021/03/13 01:27:42;;;;;;;3.47;1.50;;;;;13.00;99570.00;;;;5083771;28;20194;-78
2021/03/13 01:30:12;;;;;;;3.20;1.42;;;;;13.00;99552.00;;;;5073681;28;20237;-78
2021/03/13 01:32:39;;;;;;;3.70;1.10;;;;;13.00;99549.00;;;;5069760;28;20226;-80
2021/03/13 01:35:06;;;;;;;2.25;1.13;;;;;13.00;99536.00;;;;5088961;28;20202;-78
2021/03/13 01:37:33;;;;;;;2.75;1.60;;;;;12.90;99533.00;;;;5087591;28;20199;-78
2021/03/13 01:40:02;;;;;;;6.10;1.63;;;;;12.90;99537.00;;;;5087490;28;20195;-77
2021/03/13 01:42:29;;;;;;;2.00;0.70;;;;;12.90;99532.00;;;;5086092;28;20605;-79
2021/03/13 01:44:56;;;;;;;4.72;1.70;;;;;12.90;99530.00;;;;5087312;28;20198;-79
2021/03/13 01:47:24;;;;;;;5.28;1.85;;;;;12.80;99517.00;;;;5070706;28;542733;-78
2021/03/13 01:49:52;;;;;;;1.88;1.30;;;;;12.80;99503.00;;;;5087198;28;20203;-78
2021/03/13 01:52:19;;;;;;;2.30;1.10;;;;;12.80;99504.00;;;;5070277;28;20222;-78
2021/03/13 01:54:48;;;;;;;4.88;1.23;;;;;12.80;99499.00;;;;5086893;28;20648;-78
2021/03/13 01:57:17;;;;;;;2.28;1.20;;;;;12.80;99481.00;;;;5089063;28;20202;-78
2021/03/13 01:59:44;;;;;;;4.25;0.90;;;;;12.80;99471.00;;;;5085563;28;20213;-78
2021/03/13 02:02:14;;;;;;;2.17;1.20;;;;;12.70;99464.00;;;;5087806;28;20198;-79
2021/03/13 02:04:42;;;;;;;4.10;1.00;;;;;12.70;99454.00;;;;5087906;28;20578;-78
2021/03/13 02:07:17;;;;;;;1.52;0.85;;;;;12.70;99440.00;;;;5089100;28;20723;-79
2021/03/13 02:09:51;;;;;;;1.75;1.10;;;;;12.70;99433.00;;;;5085656;28;20686;-79
2021/03/13 02:12:30;;;;;;;3.10;1.52;;;;;12.60;99416.00;;;;5089316;28;20349;-79
2021/03/13 02:15:02;;;;;;;1.92;1.25;;;;;12.60;99405.00;;;;5088509;28;20416;-79
2021/03/13 02:17:38;;;;;;;4.15;1.15;;;;;12.60;99410.00;;;;5081297;28;20199;-79
2021/03/13 02:20:35;;;;;;;1.98;1.27;;;;;12.50;99405.00;;;;5082366;28;20205;-79
2021/03/13 02:23:04;;;;;;;4.38;1.23;;;;;12.60;99389.00;;;;5088956;28;20285;-79
2021/03/13 02:25:44;;;;;;;4.38;1.48;;;;;12.50;99386.00;;;;5088708;28;20190;-79
2021/03/13 02:28:18;;;;;;;4.13;1.30;;;;;12.60;99371.00;;;;5087177;28;20214;-79
2021/03/13 02:30:46;;;;;;;3.03;1.50;;;;;12.60;99344.00;;;;5088176;28;20581;-78
2021/03/13 02:33:20;;;;;;;1.08;0.98;;;;;12.50;99352.00;;;;5083138;28;20218;-79
2021/03/13 02:35:56;;;;;;;2.67;1.02;;;;;12.50;99343.00;;;;5073345;28;20340;-78
2021/03/13 02:38:29;;;;;;;4.03;0.90;;;;;12.50;99326.00;;;;5077945;28;20206;-77
2021/03/13 02:41:00;;;;;;;2.00;1.60;;;;;12.60;99307.00;;;;5087477;28;20656;-79
2021/03/13 02:43:28;;;;;;;1.75;1.30;;;;;12.50;99313.00;;;;5086913;28;20206;-79
2021/03/13 02:45:59;;;;;;;2.70;1.05;;;;;12.50;99294.00;;;;5088515;28;20209;-78
2021/03/13 02:48:27;;;;;;;2.10;0.90;;;;;12.50;99284.00;;;;5088308;28;20766;-77
2021/03/13 02:50:56;;;;;;;3.08;1.15;;;;;12.50;99286.00;;;;5084281;28;20194;-78
2021/03/13 02:53:24;;;;;;;2.38;1.08;;;;;12.50;99263.00;;;;5069473;28;20227;-78
2021/03/13 02:55:52;;;;;;;2.75;1.45;;;;;12.50;99257.00;;;;5083005;28;20195;-78
2021/03/13 02:58:20;;;;;;;2.47;1.15;;;;;12.50;99242.00;;;;5077145;28;20664;-77
2021/03/13 03:00:48;;;;;;;2.17;0.90;;;;;12.50;99229.00;;;;5074184;28;20198;-78
2021/03/13 03:03:17;;;;;;;3.10;1.20;;;;;12.40;99217.00;;;;5076160;28;20237;-78
2021/03/13 03:05:44;;;;;;;4.25;1.35;;;;;12.40;99209.00;;;;5074615;28;20199;-77
2021/03/13 03:08:13;;;;;;;1.60;1.08;;;;;12.40;99187.00;;;;5077129;28;20202;-78
2021/03/13 03:10:44;;;;;;;1.92;0.82;;;;;12.40;99190.00;;;;5075043;28;20256;-78
2021/03/13 03:13:12;;;;;;;2.38;0.75;;;;;12.40;99175.00;;;;5084777;28;20213;-78
2021/03/13 03:15:41;;;;;;;2.88;0.80;;;;;12.40;99172.00;;;;5087506;28;20244;-78
2021/03/13 03:18:10;;;;;;;1.30;0.70;;;;;12.40;99142.00;;;;5080305;28;20186;-79
2021/03/13 03:20:39;;;;;;;1.45;0.90;;;;;12.40;99140.00;;;;5074658;28;20679;-78
2021/03/13 03:23:07;;;;;;;2.35;0.77;;;;;12.40;99128.00;;;;5075867;28;20194;-78
2021/03/13 03:25:34;;;;;;;3.17;0.90;;;;;12.40;99135.00;;;;5074269;28;20683;-77
2021/03/13 03:28:01;;;;;;;1.15;0.63;;;;;12.40;99129.00;;;;5074628;28;20237;-78
2021/03/13 03:30:30;;;;;;;1.23;0.55;;;;;12.40;99113.00;;;;5076220;28;20191;-78
2021/03/13 03:32:57;;;;;;;1.20;0.57;;;;;12.50;99109.00;;;;5077314;28;20219;-77
2021/03/13 03:35:25;;;;;;;1.08;0.70;;;;;12.40;99095.00;;;;5086839;28;20202;-79
2021/03/13 03:37:54;;;;;;;1.85;0.93;;;;;12.40;99088.00;;;;5087316;28;20194;-78
2021/03/13 03:40:24;;;;;;;1.40;0.70;;;;;12.50;99074.00;;;;5086889;28;20292;-77
2021/03/13 03:42:55;;;;;;;1.85;0.77;;;;;12.50;99076.00;;;;5074894;28;20199;-77
2021/03/13 03:45:24;;;;;;;2.85;0.80;;;;;12.50;99058.00;;;;5087671;28;20667;-77
2021/03/13 03:47:51;;;;;;;2.53;0.93;;;;;12.50;99057.00;;;;5086695;28;20218;-78
2021/03/13 03:50:21;;;;;;;1.10;1.00;;;;;12.50;99038.00;;;;5078250;28;20198;-77
2021/03/13 03:52:51;;;;;;;4.47;1.40;;;;;12.50;99041.00;;;;5088824;28;20238;-78
2021/03/13 03:55:23;;;;;;;2.72;1.17;;;;;12.50;99019.00;;;;5088191;28;20957;-79
2021/03/13 03:57:52;;;;;;;3.40;1.00;;;;;12.50;99021.00;;;;5087893;28;20194;-78
2021/03/13 04:00:20;;;;;;;1.23;0.70;;;;;12.50;99017.00;;;;5079749;28;20259;-77
2021/03/13 04:02:48;;;;;;;4.05;0.75;;;;;12.50;99002.00;;;;5086661;28;20817;-77
2021/03/13 04:05:17;;;;;;;2.17;1.00;;;;;12.60;98991.00;;;;5082689;28;20190;-77
2021/03/13 04:07:45;;;;;;;1.80;0.80;;;;;12.60;98987.00;;;;5083289;28;20528;-78
2021/03/13 04:10:14;;;;;;;1.25;0.65;;;;;12.60;98972.00;;;;5087089;28;20197;-78
2021/03/13 04:12:43;;;;;;;2.90;0.70;;;;;12.60;98958.00;;;;5082882;28;20691;-77
2021/03/13 04:15:12;;;;;;;1.98;0.73;;;;;12.60;98951.00;;;;5085773;28;20202;-77
2021/03/13 04:17:39;;;;;;;2.20;0.80;;;;;12.60;98943.00;;;;5085418;28;20668;-78
2021/03/13 04:20:08;;;;;;;3.92;0.77;;;;;12.60;98940.00;;;;5084822;28;20210;-78
2021/03/13 04:22:35;;;;;;;2.47;0.70;;;;;12.60;98940.00;;;;5083540;28;20195;-77
2021/03/13 04:25:04;;;;;;;3.28;0.65;;;;;12.60;98921.00;;;;5086832;28;20202;-78
2021/03/13 04:27:31;;;;;;;2.58;0.85;;;;;12.60;98923.00;;;;5086847;28;20209;-77
2021/03/13 04:29:59;;;;;;;2.13;0.70;;;;;12.60;98900.00;;;;5086230;28;20256;-78
2021/03/13 04:32:26;;;;;;;1.63;0.70;;;;;12.60;98909.00;;;;5087101;28;20230;-77
2021/03/13 04:34:54;;;;;;;2.78;0.55;;;;;12.60;98882.00;;;;5079824;28;20198;-78
2021/03/13 04:37:24;;;;;;;3.08;0.98;;;;;12.60;98909.00;;;;5084204;28;20217;-78
2021/03/13 04:39:51;;;;;;;2.42;0.80;;;;;12.60;98883.00;;;;5088988;28;20280;-78
2021/03/13 04:42:18;;;;;;;5.65;1.35;;;;;12.70;98878.00;;;;5087737;28;20202;-78
2021/03/13 04:44:45;;;;;;;2.17;0.60;;;;;12.60;98861.00;;;;5083127;28;20202;-77
2021/03/13 04:47:14;;;;;;;3.40;0.90;;;;;12.70;98858.00;;;;5089911;28;20229;-78
2021/03/13 04:49:41;;;;;;;1.85;0.65;;;;;12.70;98853.00;;;;5087503;28;20195;-77
2021/03/13 04:52:08;;;;;;;2.33;0.60;;;;;12.70;98852.00;;;;5089908;28;20210;-78
2021/03/13 04:54:35;;;;;;;2.13;0.47;;;;;12.70;98844.00;;;;5086488;28;20193;-79
2021/03/13 04:57:02;;;;;;;1.75;0.90;;;;;12.70;98840.00;;;;5088937;28;20672;-77
2021/03/13 04:59:30;;;;;;;2.00;0.50;;;;;12.80;98837.00;;;;5088563;28;20617;-78
2021/03/13 05:01:58;;;;;;;3.17;0.30;;;;;12.80;98837.00;;;;5086367;28;20198;-79
2021/03/13 05:04:25;;;;;;;3.50;1.30;;;;;12.80;98815.00;;;;5086786;28;20186;-78
2021/03/13 05:06:52;;;;;;;1.83;0.50;;;;;12.80;98803.00;;;;5085790;28;20214;-77
2021/03/13 05:09:19;;;;;;;3.47;0.52;;;;;12.80;98797.00;;;;5086122;28;20194;-78
2021/03/13 05:11:46;;;;;;;3.58;0.65;;;;;12.80;98794.00;;;;5089963;28;20221;-78
2021/03/13 05:14:12;;;;;;;2.58;0.95;;;;;12.80;98772.00;;;;5084856;28;20186;-78
2021/03/13 05:16:39;;;;;;;2.15;0.70;;;;;12.80;98783.00;;;;5088845;28;20198;-78
2021/03/13 05:19:06;;;;;;;3.22;0.70;;;;;12.80;98778.00;;;;5089636;28;20250;-79
2021/03/13 05:21:34;;;;;;;3.00;0.73;;;;;12.80;98772.00;;;;5089041;28;20277;-79
2021/03/13 05:24:01;;;;;;;3.33;0.50;;;;;12.90;98784.00;;;;5088543;28;20198;-78
2021/03/13 05:26:28;;;;;;;2.83;0.65;;;;;12.90;98786.00;;;;5089649;28;20195;-79
2021/03/13 05:28:55;;;;;;;2.58;0.90;;;;;12.90;98767.00;;;;5085956;28;20214;-79
2021/03/13 05:31:22;;;;;;;1.33;0.32;;;;;12.90;98775.00;;;;5086980;28;20202;-78
2021/03/13 05:33:49;;;;;;;0.88;0.47;;;;;12.80;98761.00;;;;5084288;28;20314;-79
2021/03/13 05:36:16;;;;;;;1.70;0.40;;;;;12.80;98807.00;;;;5078024;28;20217;-79
2021/03/13 05:38:44;;;;;;;2.40;0.68;;;;;12.80;98804.00;;;;5083339;28;20194;-79
2021/03/13 05:41:11;;;;;;;1.05;0.73;;;;;12.80;98806.00;;;;5083726;28;20199;-79
2021/03/13 05:43:39;;;;;;;3.42;0.70;;;;;12.80;98800.00;;;;5083260;28;20194;-79
2021/03/13 05:46:07;;;;;;;1.20;0.60;;;;;12.80;98797.00;;;;5076902;28;20198;-78
2021/03/13 05:48:35;;;;;;;3.60;0.50;;;;;12.70;98808.00;;;;5088350;28;20241;-78
2021/03/13 05:51:03;;;;;;;1.27;0.70;;;;;12.70;98795.00;;;;5085451;28;20264;-79
2021/03/13 05:53:31;;;;;;;1.27;0.30;;;;;12.70;98817.00;;;;5078559;28;20692;-78
2021/03/13 05:55:59;;;;;;;2.72;0.50;;;;;12.70;98809.00;;;;5072718;28;20194;-77
2021/03/13 05:58:27;;;;;;;0.70;0.35;;;;;12.70;98818.00;;;;5082231;28;20289;-79
2021/03/13 06:00:53;;;;;;;2.15;0.40;;;;;12.70;98807.00;;;;5079722;28;20621;-77
2021/03/13 06:03:20;;;;;;;2.05;0.57;;;;;12.60;98816.00;;;;5071092;28;20331;-79
2021/03/13 06:05:47;;;;;;;3.83;0.60;;;;;12.60;98810.00;;;;5078852;28;20186;-78
2021/03/13 06:08:16;;;;;;;0.50;0.10;;;;;12.60;98807.00;;;;5074861;28;20191;-78
2021/03/13 06:10:43;;;;;;;1.70;0.32;;;;;12.50;98806.00;;;;5076844;28;20611;-77
2021/03/13 06:13:11;;;;;;;2.25;0.35;;;;;12.50;98807.00;;;;5085700;28;20230;-76
2021/03/13 06:15:38;;;;;;;0.70;0.20;;;;;12.50;98798.00;;;;5078293;28;20205;-76
2021/03/13 06:18:05;;;;;;;1.98;0.20;;;;;12.40;98813.00;;;;5072584;28;20691;-77
2021/03/13 06:20:34;;;;;;;0.20;0.13;;;;;12.40;98795.00;;;;5083155;28;20240;-77
2021/03/13 06:23:03;;;;;;;1.23;0.13;;;;;12.40;98787.00;;;;5083074;28;20194;-77
2021/03/13 06:25:31;;;;;;;2.40;0.40;;;;;12.40;98802.00;;;;5083480;28;20194;-77
2021/03/13 06:28:10;;;;;;;3.67;0.38;;;;;12.30;98806.00;;;;5078677;28;20198;-78
2021/03/13 06:30:38;;;;;;;0.30;0.20;;;;;12.30;98803.00;;;;5076073;28;20512;-77
2021/03/13 06:33:22;;;;;;;0.82;0.20;;;;;12.20;98814.00;;;;5076797;28;20226;-78
2021/03/13 06:35:51;;;;;;;0.75;0.22;;;;;12.30;98807.00;;;;5079856;28;20259;-77
2021/03/13 06:38:20;;;;;;;0.90;0.13;;;;;12.30;98816.00;;;;5077090;28;20849;-77
2021/03/13 06:40:48;;;;;;;2.00;0.25;;;;;12.30;98819.00;;;;5077965;28;20571;-78
2021/03/13 06:43:21;;;;;;;0.60;0.10;;;;;12.30;98824.00;;;;5077365;28;20225;-77
2021/03/13 06:46:00;;;;;;;0.50;0.17;;;;;12.30;98827.00;;;;5079514;28;20186;-77
2021/03/13 06:48:38;;;;;;;0.45;0.40;;;;;12.30;98828.00;;;;5078195;28;20233;-77
2021/03/13 06:51:20;;;;;;;1.15;0.30;;;;;12.30;98829.00;;;;5081565;28;20190;-77
2021/03/13 06:54:00;;;;;;;2.03;0.30;;;;;12.20;98832.00;;;;5084695;28;20271;-77
2021/03/13 06:56:28;;;;;;;3.03;0.22;;;;;12.30;98838.00;;;;5077938;28;20202;-77
2021/03/13 06:58:56;;;;;;;2.28;0.65;;;;;12.30;98839.00;;;;5079553;28;20243;-77
2021/03/13 07:01:27;;;;;;;3.03;0.60;;;;;12.30;98841.00;;;;5083897;28;20704;-78
2021/03/13 07:03:55;;;;;;;4.20;0.80;;;;;12.30;98834.00;;;;5087874;28;20209;-78
2021/03/13 07:06:22;;;;;;;3.72;0.43;;;;;12.30;98831.00;;;;5081565;28;20202;-79
2021/03/13 07:08:51;;;;;;;5.38;0.52;;;;;12.30;98841.00;;;;5078922;28;20218;-77
2021/03/13 07:11:21;;;;;;;5.65;0.93;;;;;12.30;98855.00;;;;5082358;28;20198;-78
2021/03/13 07:13:50;;;;;;;3.28;0.70;;;;;12.40;98868.00;;;;5084491;28;20226;-77
2021/03/13 07:16:22;;;;;;;3.88;0.73;;;;;12.40;98856.00;;;;5087465;28;20221;-76
2021/03/13 07:18:50;;;;;;;4.72;0.60;;;;;12.40;98842.00;;;;5080580;28;20672;-78
2021/03/13 07:21:19;;;;;;;6.53;1.10;;;;;12.40;98843.00;;;;5083463;28;20233;-77
2021/03/13 07:23:52;;;;;;;2.42;1.00;;;;;12.40;98852.00;;;;5082016;28;20206;-76
2021/03/13 07:26:20;;;;;;;1.42;0.43;;;;;12.50;98850.00;;;;5086944;28;20560;-77
2021/03/13 07:28:48;;;;;;;5.38;1.15;;;;;12.50;98842.00;;;;5077277;28;20260;-78
2021/03/13 07:31:19;;;;;;;2.47;0.80;;;;;12.50;98845.00;;;;5082872;28;20678;-79
2021/03/13 07:33:49;;;;;;;3.33;0.77;;;;;12.60;98842.00;;;;5087723;28;20313;-77
2021/03/13 07:36:20;;;;;;;5.55;1.40;;;;;12.60;98842.00;;;;5082993;28;20206;-79
2021/03/13 07:38:50;;;;;;;3.95;0.75;;;;;12.60;98856.00;;;;5078758;28;20229;-79
2021/03/13 07:41:18;;;;;;;2.80;0.57;;;;;12.60;98853.00;;;;5077779;28;20551;-77
2021/03/13 07:43:46;;;;;;;2.80;0.45;;;;;12.70;98866.00;;;;5078727;28;20206;-77
2021/03/13 07:46:14;;;;;;;4.65;0.70;;;;;12.80;98852.00;;;;5074222;28;20729;-77
2021/03/13 07:48:41;;;;;;;7.72;1.02;;;;;12.90;98860.00;;;;5079296;28;20233;-76
2021/03/13 07:51:10;;;;;;;1.95;0.80;;;;;12.90;98864.00;;;;5081636;28;20195;-75
2021/03/13 07:53:39;;;;;;;6.30;0.88;;;;;12.90;98880.00;;;;5078017;28;20599;-76
2021/03/13 07:56:10;;;;;;;5.82;0.80;;;;;12.90;98871.00;;;;5080773;28;20202;-76
2021/03/13 07:58:39;;;;;;;4.85;1.20;;;;;12.90;98879.00;;;;5084077;28;20664;-77
2021/03/13 08:01:06;;;;;;;2.45;0.70;;;;;13.00;98873.00;;;;5073302;28;20203;-77
2021/03/13 08:03:43;;;;;;;4.05;0.75;;;;;13.00;98878.00;;;;5084191;28;20629;-76
2021/03/13 08:06:13;;;;;;;2.90;0.65;;;;;13.00;98862.00;;;;5078301;28;20206;-76
2021/03/13 08:08:41;;;;;;;6.18;1.13;;;;;13.00;98873.00;;;;5087167;28;20210;-77
2021/03/13 08:11:10;;;;;;;7.05;1.23;;;;;13.10;98866.00;;;;5086550;28;20205;-78
2021/03/13 08:13:56;;;;;;;6.30;0.98;;;;;13.00;98876.00;;;;5083540;28;20687;-78
2021/03/13 08:16:38;;;;;;;4.78;1.15;;;;;13.10;98862.00;;;;5091321;28;20666;-79
2021/03/13 08:19:20;;;;;;;8.18;1.02;;;;;13.20;98869.00;;;;5087071;28;20571;-76
2021/03/13 08:21:48;;;;;;;4.85;0.90;;;;;13.20;98878.00;;;;5090722;28;20198;-77
2021/03/13 08:24:15;;;;;;;5.78;0.90;;;;;13.30;98896.00;;;;5081849;28;20194;-79
2021/03/13 08:27:07;;;;;;;6.85;1.35;;;;;13.20;98902.00;;;;5083630;28;20652;-79
2021/03/13 08:29:58;;;;;;;5.13;0.60;;;;;13.30;98888.00;;;;5079851;28;20242;-79
2021/03/13 08:33:04;;;;;;;3.63;0.75;;;;;13.30;98885.00;;;;5067745;28;20584;-79
2021/03/13 08:35:47;;;;;;;3.00;0.60;;;;;13.40;98890.00;;;;5088921;28;20233;-79
2021/03/13 08:38:20;;;;;;;2.83;0.82;;;;;13.50;98882.00;;;;5080842;28;20202;-80
2021/03/13 08:40:53;;;;;;;4.15;0.88;;;;;13.60;98883.00;;;;5089654;28;20618;-80
2021/03/13 08:43:42;;;;;;;4.53;1.02;;;;;13.60;98880.00;;;;5091457;28;20255;-79
2021/03/13 08:46:41;;;;;;;5.72;1.25;;;;;13.60;98886.00;;;;5083365;28;20260;-79
2021/03/13 08:49:08;;;;;;;7.70;1.65;;;;;13.80;98875.00;;;;5089112;28;20194;-80
2021/03/13 08:51:36;;;;;;;5.22;0.88;;;;;13.80;98877.00;;;;5089767;28;20248;-81
2021/03/13 08:54:04;;;;;;;5.93;0.80;;;;;13.80;98882.00;;;;5089387;28;20218;-79
2021/03/13 08:56:43;;;;;;;8.90;1.55;;;;;13.70;98875.00;;;;5088226;28;20263;-79
2021/03/13 08:59:20;;;;;;;5.47;1.38;;;;;13.70;98881.00;;;;5082851;28;20190;-77
2021/03/13 09:02:02;;;;;;;3.63;1.20;;;;;13.70;98884.00;;;;5086120;28;20190;-77
2021/03/13 09:04:30;;;;;;;9.40;1.58;;;;;13.80;98878.00;;;;5078309;28;20256;-77
2021/03/13 09:06:58;;;;;;;4.93;0.88;;;;;13.80;98886.00;;;;5087688;28;20268;-79
2021/03/13 09:09:27;;;;;;;9.50;1.33;;;;;13.80;98882.00;;;;5088010;28;20206;-79
2021/03/13 09:11:59;;;;;;;9.23;1.40;;;;;13.80;98889.00;;;;5090584;28;20205;-76
2021/03/13 09:14:26;;;;;;;19.80;1.85;;;;;13.80;98896.00;;;;5084817;28;20195;-77
2021/03/13 09:16:54;;;;;;;4.53;1.13;;;;;13.90;98886.00;;;;5087019;28;20203;-77
2021/03/13 09:19:23;;;;;;;8.00;1.48;;;;;13.90;98890.00;;;;5087485;28;20198;-77
2021/03/13 09:21:52;;;;;;;7.18;2.15;;;;;13.90;98875.00;;;;5088440;28;20190;-78
2021/03/13 09:24:21;;;;;;;6.63;1.30;;;;;13.90;98884.00;;;;5090301;28;20198;-77
2021/03/13 09:26:50;;;;;;;10.65;1.42;;;;;14.00;98885.00;;;;5087350;28;20202;-78
2021/03/13 09:29:26;;;;;;;6.07;1.25;;;;;14.00;98889.00;;;;5084947;28;20213;-79
2021/03/13 09:31:59;;;;;;;7.63;2.00;;;;;14.00;98887.00;;;;5085832;28;20201;-78
2021/03/13 09:34:26;;;;;;;7.28;1.63;;;;;14.10;98887.00;;;;5087373;28;20248;-77
2021/03/13 09:36:53;;;;;;;7.70;1.77;;;;;14.10;98898.00;;;;5085154;28;20206;-78
2021/03/13 09:39:22;;;;;;;5.88;0.95;;;;;14.10;98890.00;;;;5088289;28;20190;-78
2021/03/13 09:42:08;;;;;;;13.07;2.72;;;;;14.10;98886.00;;;;5080462;28;20206;-77
2021/03/13 09:44:37;;;;;;;10.05;1.83;;;;;14.20;98899.00;;;;5088532;28;20202;-80
2021/03/13 09:47:13;;;;;;;8.85;2.42;;;;;14.20;98889.00;;;;5083040;28;20219;-78
2021/03/13 09:49:40;;;;;;;8.38;1.92;;;;;14.30;98893.00;;;;5088040;28;20202;-79
2021/03/13 09:52:07;;;;;;;7.65;1.85;;;;;14.30;98893.00;;;;5087344;28;20208;-78
2021/03/13 09:54:34;;;;;;;9.38;2.65;;;;;14.40;98905.00;;;;5088873;28;20205;-77
2021/03/13 09:57:13;;;;;;;11.98;2.40;;;;;14.40;98896.00;;;;5084942;28;20567;-77
2021/03/13 09:59:41;;;;;;;10.98;2.50;;;;;14.40;98874.00;;;;5078906;28;20182;-77
2021/03/13 10:02:10;;;;;;;11.35;2.42;;;;;14.50;98900.00;;;;5089734;28;20194;-75
2021/03/13 10:04:37;;;;;;;13.68;2.80;;;;;14.60;98891.00;;;;5083513;28;20229;-78
2021/03/13 10:07:05;;;;;;;7.22;2.60;;;;;14.70;98903.00;;;;5077677;28;20210;-78
2021/03/13 10:09:31;;;;;;;12.68;2.28;;;;;14.70;98922.00;;;;5069238;28;20617;-76
2021/03/13 10:12:04;;;;;;;7.53;1.67;;;;;14.80;98889.00;;;;5072501;28;20198;-76
2021/03/13 10:14:39;;;;;;;10.27;1.08;;;;;14.90;98918.00;;;;5090027;28;20198;-76
2021/03/13 10:17:06;;;;;;;7.97;1.33;;;;;15.00;98906.00;;;;5076027;28;20203;-75
2021/03/13 10:19:35;;;;;;;6.53;1.20;;;;;15.10;98892.00;;;;5076908;28;20521;-75
2021/03/13 10:22:08;;;;;;;8.90;1.60;;;;;15.10;98876.00;;;;5087646;28;20190;-75
2021/03/13 10:24:43;;;;;;;7.03;1.60;;;;;15.10;98888.00;;;;5086125;28;20186;-76
2021/03/13 10:27:10;;;;;;;5.05;1.65;;;;;15.20;98905.00;;;;5078547;28;20198;-76
2021/03/13 10:29:38;;;;;;;7.07;1.55;;;;;15.30;98899.00;;;;5076893;28;20285;-76
2021/03/13 10:32:06;;;;;;;9.95;2.13;;;;;15.30;98909.00;;;;5075487;28;20223;-76
2021/03/13 10:34:36;;;;;;;5.93;1.88;;;;;15.30;98915.00;;;;5077552;28;20263;-76
2021/03/13 10:37:03;;;;;;;6.70;1.77;;;;;15.30;98913.00;;;;5073668;28;20191;-75
2021/03/13 10:39:46;;;;;;;4.65;1.80;;;;;15.30;98912.00;;;;5073035;28;20280;-75
2021/03/13 10:42:23;;;;;;;9.15;1.70;;;;;15.20;98903.00;;;;5083617;28;20195;-76
2021/03/13 10:44:51;;;;;;;14.50;1.92;;;;;15.20;98891.00;;;;5068757;28;20689;-77
2021/03/13 10:47:28;;;;;;;11.27;1.50;;;;;15.20;98913.00;;;;5082491;28;20229;-75
2021/03/13 10:49:58;;;;;;;10.60;1.88;;;;;15.20;98902.00;;;;5089264;28;20198;-75
2021/03/13 10:52:28;;;;;;;12.32;1.83;;;;;15.20;98895.00;;;;5088664;28;20214;-76
2021/03/13 10:54:56;;;;;;;4.57;1.10;;;;;15.20;98900.00;;;;5086378;28;20202;-76
2021/03/13 10:57:23;;;;;;;7.30;1.83;;;;;15.20;98883.00;;;;5087740;28;20273;-77
2021/03/13 10:59:50;;;;;;;7.20;1.40;;;;;15.20;98900.00;;;;5088853;28;20213;-77
2021/03/13 11:02:18;;;;;;;9.02;1.80;;;;;15.20;98886.00;;;;5088985;28;20596;-77
2021/03/13 11:04:44;;;;;;;4.40;1.52;;;;;15.30;98900.00;;;;5089216;28;20211;-79
2021/03/13 11:07:12;;;;;;;5.65;1.38;;;;;15.30;98921.00;;;;5081417;28;20213;-79
2021/03/13 11:09:39;;;;;;;7.18;2.28;;;;;15.30;98913.00;;;;5089284;28;20198;-79
2021/03/13 11:12:06;;;;;;;3.70;1.40;;;;;15.20;98902.00;;;;5079767;28;20211;-78
2021/03/13 11:14:33;;;;;;;6.20;1.27;;;;;15.20;98893.00;;;;5083961;28;20190;-77
2021/03/13 11:17:01;;;;;;;6.50;1.23;;;;;15.20;98901.00;;;;5087331;28;20206;-78
2021/03/13 11:19:29;;;;;;;7.72;1.75;;;;;15.30;98905.00;;;;5068130;28;20194;-79
2021/03/13 11:21:58;;;;;;;5.85;1.67;;;;;15.30;98898.00;;;;5078585;28;20313;-79
2021/03/13 11:24:25;;;;;;;9.70;2.13;;;;;15.40;98903.00;;;;5083906;28;20230;-80
2021/03/13 11:26:53;;;;;;;9.93;1.92;;;;;15.40;98891.00;;;;5080908;28;20194;-77
2021/03/13 11:29:20;;;;;;;5.28;1.27;;;;;15.50;98907.00;;;;5073114;28;20296;-76
2021/03/13 11:31:47;;;;;;;7.15;1.20;;;;;15.50;98887.00;;;;5068010;28;20668;-78
2021/03/13 11:34:15;;;;;;;4.10;0.90;;;;;15.50;98903.00;;;;5088349;28;20291;-78
2021/03/13 11:36:42;;;;;;;7.00;1.13;;;;;15.50;98905.00;;;;5086513;28;20206;-79
2021/03/13 11:39:10;;;;;;;3.88;1.20;;;;;15.50;98926.00;;;;5087044;28;20230;-78
2021/03/13 11:41:41;;;;;;;9.45;1.85;;;;;15.40;98900.00;;;;5079711;28;20226;-80
2021/03/13 11:44:09;;;;;;;6.40;1.17;;;;;15.40;98914.00;;;;5083260;28;20667;-79
2021/03/13 11:46:36;;;;;;;6.70;1.00;;;;;15.40;98914.00;;;;5076759;28;20783;-79
2021/03/13 11:49:03;;;;;;;3.97;1.15;;;;;15.40;98904.00;;;;5071525;28;20213;-78
2021/03/13 11:51:31;;;;;;;4.53;1.50;;;;;15.40;98928.00;;;;5085069;28;20212;-77
2021/03/13 11:53:58;;;;;;;4.00;1.13;;;;;15.40;98910.00;;;;5091594;28;20218;-78
2021/03/13 11:56:25;;;;;;;4.53;1.70;;;;;15.30;98909.00;;;;5092205;28;20206;-78
2021/03/13 11:58:52;;;;;;;4.90;1.23;;;;;15.20;98933.00;;;;5091972;28;20201;-78
2021/03/13 12:01:19;;;;;;;5.97;0.85;;;;;15.10;98932.00;;;;5085498;28;20709;-78
2021/03/13 12:03:47;;;;;;;2.47;0.73;;;;;15.00;98937.00;;;;5080900;28;20197;-77
2021/03/13 12:06:14;;;;;;;0.93;0.30;;;;;15.00;98914.00;;;;5091566;28;20210;-76
2021/03/13 12:08:41;;;;;;;1.33;0.38;;;;;15.00;98929.00;;;;5076595;28;20187;-76
2021/03/13 12:11:08;;;;;;;3.75;0.47;;;;;14.90;98940.00;;;;5083792;28;20202;-77
2021/03/13 12:13:35;;;;;;;1.70;0.55;;;;;14.90;98914.00;;;;5091034;28;20214;-76
2021/03/13 12:16:03;;;;;;;5.28;0.82;;;;;14.90;98940.00;;;;5092288;28;20202;-76
2021/03/13 12:18:32;;;;;;;2.72;0.63;;;;;14.90;98955.00;;;;5085912;28;20197;-78
2021/03/13 12:20:59;;;;;;;4.20;0.85;;;;;14.90;98944.00;;;;5089507;28;20213;-78
2021/03/13 12:23:26;;;;;;;2.85;0.50;;;;;14.90;98927.00;;;;5076052;28;20195;-79
2021/03/13 12:25:53;;;;;;;3.15;0.82;;;;;15.00;98942.00;;;;5071472;28;20206;-78
2021/03/13 12:28:20;;;;;;;8.68;0.75;;;;;15.10;98919.00;;;;5075835;28;20211;-77